Terminal Aerodrome Forecast
Issued by NWS

Home | Current Version | Previous Version | Text Only | Print | Product List | Glossary On
Versions: 1 2 3 4 5 6 7 8 9 10 11 12 13 14 15 16 17 18 19 20 21 22 23
000
FTUS41 KBGM 021100
TAFRME
TAF
KRME 021140Z 0212/0312 27010KT 3SM -SHSN OVC035
     FM021600 27015G25KT P6SM SCT025 BKN040
     FM030000 30010KT P6SM BKN050
     FM030300 00000KT P6SM SKC=

USA.gov is the U.S. government's official web portal to all federal, state and local government web resources and services.